Time;durP1;ratioP1;P1;durP2;ratioP2;P2;SDS_P1;SDS_P2;PMS_P1;PMS_P2;Temp;Humidity;BMP_temperature;BMP_pressure;BME280_temperature;BME280_humidity;BME280_pressure;Samples;Min_cycle;Max_cycle;Signal;HPM_P1;HPM_P2
2022/12/15 00:38:43;;;;;;;;;;;;;;;;;;10498342;28;19925;-61
2022/12/15 00:43:45;;;;;;;;;;;;;;;;;;10496017;28;20405;-61
2022/12/15 00:48:47;;;;;;;;;;;;;;;;;;10485916;28;20359;-61
2022/12/15 01:20:38;;;;;;;;;;;;;;;;;;10502409;28;19929;-61
2022/12/15 01:25:40;;;;;;;;;;;;;;;;;;10501581;28;20330;-61
2022/12/15 01:30:42;;;;;;;;;;;;;;;;;;10504536;28;19924;-61
2022/12/15 01:35:45;;;;;;;;;;;;;;;;;;10503791;28;19928;-61
2022/12/15 01:40:49;;;;;;;;;;;;;;;;;;10485831;28;19931;-60
2022/12/15 01:45:51;;;;;;;;;;;;;;;;;;10469102;28;20322;-61
2022/12/15 01:50:53;;;;;;;;;;;;;;;;;;10503739;28;19925;-61
2022/12/15 01:55:55;;;;;;;;;;;;;;;;;;10503383;28;19932;-60
2022/12/15 02:00:57;;;;;;;;;;;;;;;;;;10501401;28;19984;-61
2022/12/15 02:06:00;;;;;;;;;;;;;;;;;;10499757;28;19929;-60
2022/12/15 02:11:02;;;;;;;;;;;;;;;;;;10460160;28;19979;-61
2022/12/15 02:16:04;;;;;;;;;;;;;;;;;;10460682;28;19924;-61
2022/12/15 02:21:06;;;;;;;;;;;;;;;;;;10461255;28;19925;-61
2022/12/15 02:26:08;;;;;;;;;;;;;;;;;;10492016;28;19959;-61
2022/12/15 02:36:31;;;;;;;;;;;;;;;;;;10499074;28;20367;-61
2022/12/15 02:41:33;;;;;;;;;;;;;;;;;;10501700;28;19931;-61
2022/12/15 02:46:35;;;;;;;;;;;;;;;;;;10501518;28;19931;-61
2022/12/15 02:51:37;;;;;;;;;;;;;;;;;;10497393;28;20441;-61
2022/12/15 02:56:39;;;;;;;;;;;;;;;;;;10500989;28;19928;-61
2022/12/15 03:01:41;;;;;;;;;;;;;;;;;;10498224;28;19942;-60
2022/12/15 03:06:43;;;;;;;;;;;;;;;;;;10500073;28;20398;-61
2022/12/15 03:11:45;;;;;;;;;;;;;;;;;;10449497;28;19924;-61
2022/12/15 03:16:47;;;;;;;;;;;;;;;;;;10458986;28;19933;-60
2022/12/15 03:21:49;;;;;;;;;;;;;;;;;;10479168;28;19931;-61
2022/12/15 03:26:52;;;;;;;;;;;;;;;;;;10499336;28;19924;-61
2022/12/15 03:31:54;;;;;;;;;;;;;;;;;;10497179;28;19924;-61
2022/12/15 03:36:56;;;;;;;;;;;;;;;;;;10499113;28;19924;-61
2022/12/15 03:41:58;;;;;;;;;;;;;;;;;;10496035;28;20367;-61
2022/12/15 03:47:00;;;;;;;;;;;;;;;;;;10499314;28;19924;-61
2022/12/15 03:52:04;;;;;;;;;;;;;;;;;;10486551;22;19924;-61
2022/12/15 03:57:06;;;;;;;;;;;;;;;;;;10498451;28;19925;-61
2022/12/15 04:02:08;;;;;;;;;;;;;;;;;;10496421;28;20151;-61
2022/12/15 04:07:11;;;;;;;;;;;;;;;;;;10498914;28;19977;-61
2022/12/15 04:12:13;;;;;;;;;;;;;;;;;;10496713;28;19925;-61
2022/12/15 04:17:15;;;;;;;;;;;;;;;;;;10480914;28;19925;-61
2022/12/15 04:22:17;;;;;;;;;;;;;;;;;;10496205;28;20038;-61
2022/12/15 05:36:46;;;;;;;;;;;;;;;;;;10500627;28;19939;-61
2022/12/15 05:41:49;;;;;;;;;;;;;;;;;;10502710;28;19954;-61
2022/12/15 05:46:51;;;;;;;;;;;;;;;;;;10504057;28;19925;-61
2022/12/15 05:51:53;;;;;;;;;;;;;;;;;;10503235;28;19978;-61
2022/12/15 05:56:55;;;;;;;;;;;;;;;;;;10500400;28;19925;-61
2022/12/15 06:01:57;;;;;;;;;;;;;;;;;;10501702;28;20268;-61
2022/12/15 06:06:59;;;;;;;;;;;;;;;;;;10502057;28;19982;-61
2022/12/15 06:12:01;;;;;;;;;;;;;;;;;;10503105;28;19977;-61
2022/12/15 06:17:03;;;;;;;;;;;;;;;;;;10500235;28;19925;-61
2022/12/15 06:22:06;;;;;;;;;;;;;;;;;;10502035;28;19928;-61
2022/12/15 06:27:08;;;;;;;;;;;;;;;;;;10500346;28;19924;-61
2022/12/15 06:32:10;;;;;;;;;;;;;;;;;;10501598;28;20442;-61
2022/12/15 06:37:12;;;;;;;;;;;;;;;;;;10459581;28;19925;-61
2022/12/15 06:42:14;;;;;;;;;;;;;;;;;;10460463;28;19975;-61
2022/12/15 06:47:16;;;;;;;;;;;;;;;;;;10473321;28;19939;-61
2022/12/15 06:52:18;;;;;;;;;;;;;;;;;;10500755;28;19983;-61
2022/12/15 06:57:20;;;;;;;;;;;;;;;;;;10498903;28;20276;-61
2022/12/15 07:02:23;;;;;;;;;;;;;;;;;;10500304;28;19925;-61
2022/12/15 07:07:29;;;;;;;;;;;;;;;;;;10498923;28;19978;-61
2022/12/15 07:12:31;;;;;;;;;;;;;;;;;;10499857;28;19931;-61
2022/12/15 07:17:33;;;;;;;;;;;;;;;;;;10498808;28;19954;-61
2022/12/15 07:22:36;;;;;;;;;;;;;;;;;;10499433;28;19925;-61
2022/12/15 07:27:38;;;;;;;;;;;;;;;;;;10482253;28;19998;-61
2022/12/15 07:32:40;;;;;;;;;;;;;;;;;;10497076;28;20437;-61
2022/12/15 07:37:42;;;;;;;;;;;;;;;;;;10499686;28;19924;-61
2022/12/15 07:42:44;;;;;;;;;;;;;;;;;;10496541;28;19924;-61
2022/12/15 07:47:46;;;;;;;;;;;;;;;;;;10498630;28;20409;-61
2022/12/15 07:52:49;;;;;;;;;;;;;;;;;;10459150;28;19935;-61
2022/12/15 07:57:51;;;;;;;;;;;;;;;;;;10456478;28;19978;-61
2022/12/15 08:02:53;;;;;;;;;;;;;;;;;;10453806;28;20368;-61
2022/12/15 08:07:55;;;;;;;;;;;;;;;;;;10456799;28;20376;-61
2022/12/15 08:12:57;;;;;;;;;;;;;;;;;;10457264;28;19924;-61
2022/12/15 08:17:59;;;;;;;;;;;;;;;;;;10456402;28;20315;-61
2022/12/15 08:23:01;;;;;;;;;;;;;;;;;;10457120;28;19929;-61
2022/12/15 08:28:03;;;;;;;;;;;;;;;;;;10486200;28;19931;-61
2022/12/15 08:33:05;;;;;;;;;;;;;;;;;;10497825;28;20323;-61
2022/12/15 08:38:08;;;;;;;;;;;;;;;;;;10498308;28;19938;-61
2022/12/15 08:43:10;;;;;;;;;;;;;;;;;;10460451;28;19929;-61
2022/12/15 08:48:12;;;;;;;;;;;;;;;;;;10455281;28;20391;-61
2022/12/15 08:53:14;;;;;;;;;;;;;;;;;;10444311;28;20295;-61
2022/12/15 08:58:31;;;;;;;;;;;;;;;;;;10497133;28;20330;-61
2022/12/15 09:03:33;;;;;;;;;;;;;;;;;;10454969;28;20046;-61
2022/12/15 09:08:36;;;;;;;;;;;;;;;;;;10455481;28;19924;-61
2022/12/15 09:13:38;;;;;;;;;;;;;;;;;;10461647;28;19928;-61
2022/12/15 09:18:40;;;;;;;;;;;;;;;;;;10463038;28;19929;-61
2022/12/15 09:23:43;;;;;;;;;;;;;;;;;;10462774;28;20375;-61
2022/12/15 09:28:45;;;;;;;;;;;;;;;;;;10462555;28;19929;-62
2022/12/15 09:33:51;;;;;;;;;;;;;;;;;;10462406;28;19925;-62
2022/12/15 09:38:54;;;;;;;;;;;;;;;;;;10462853;28;19974;-62
2022/12/15 09:43:57;;;;;;;;;;;;;;;;;;10461967;28;19996;-62
2022/12/15 09:48:59;;;;;;;;;;;;;;;;;;10462147;28;19975;-62
2022/12/15 09:54:01;;;;;;;;;;;;;;;;;;10461765;28;19925;-62
2022/12/15 09:59:04;;;;;;;;;;;;;;;;;;10460762;28;19979;-62
2022/12/15 10:04:06;;;;;;;;;;;;;;;;;;10496102;28;20004;-61
2022/12/15 10:09:08;;;;;;;;;;;;;;;;;;10503116;28;19932;-61
2022/12/15 10:14:11;;;;;;;;;;;;;;;;;;10503023;28;19929;-62
2022/12/15 10:19:13;;;;;;;;;;;;;;;;;;10502058;28;19978;-62
2022/12/15 10:24:15;;;;;;;;;;;;;;;;;;10501283;28;19970;-62
2022/12/15 10:29:33;;;;;;;;;;;;;;;;;;10501762;28;20007;-61
2022/12/15 10:34:36;;;;;;;;;;;;;;;;;;10484534;28;19931;-62
2022/12/15 10:39:39;;;;;;;;;;;;;;;;;;10501248;28;20397;-61
2022/12/15 10:44:41;;;;;;;;;;;;;;;;;;10501139;28;19932;-62
2022/12/15 10:49:43;;;;;;;;;;;;;;;;;;10500919;28;19932;-61
2022/12/15 10:54:46;;;;;;;;;;;;;;;;;;10500662;28;19924;-62
2022/12/15 10:59:48;;;;;;;;;;;;;;;;;;10501056;28;19974;-62
2022/12/15 11:04:51;;;;;;;;;;;;;;;;;;10500222;28;20446;-62
2022/12/15 11:09:53;;;;;;;;;;;;;;;;;;10500720;28;19924;-62
2022/12/15 11:14:55;;;;;;;;;;;;;;;;;;10500865;28;19932;-61
2022/12/15 11:19:57;;;;;;;;;;;;;;;;;;10500341;28;19924;-62
2022/12/15 11:25:03;;;;;;;;;;;;;;;;;;10500255;28;19924;-61
2022/12/15 11:30:06;;;;;;;;;;;;;;;;;;10482420;28;19924;-61
2022/12/15 11:35:08;;;;;;;;;;;;;;;;;;10499006;28;19924;-61
2022/12/15 11:40:10;;;;;;;;;;;;;;;;;;10499050;28;20264;-61
2022/12/15 11:45:12;;;;;;;;;;;;;;;;;;10498932;28;20282;-62
2022/12/15 11:50:14;;;;;;;;;;;;;;;;;;10481183;28;19925;-62
2022/12/15 11:55:16;;;;;;;;;;;;;;;;;;10499330;28;19970;-62
2022/12/15 12:00:18;;;;;;;;;;;;;;;;;;10499094;28;19924;-61
2022/12/15 12:05:20;;;;;;;;;;;;;;;;;;10498465;28;19993;-61
2022/12/15 12:10:22;;;;;;;;;;;;;;;;;;10498989;28;19929;-61
2022/12/15 12:15:24;;;;;;;;;;;;;;;;;;10498145;28;19925;-62
2022/12/15 12:20:26;;;;;;;;;;;;;;;;;;10498926;28;19924;-62
2022/12/15 12:25:28;;;;;;;;;;;;;;;;;;10491636;28;19925;-61
2022/12/15 12:30:30;;;;;;;;;;;;;;;;;;10455394;28;20402;-61
2022/12/15 12:35:32;;;;;;;;;;;;;;;;;;10456261;28;19932;-61
2022/12/15 12:40:34;;;;;;;;;;;;;;;;;;10456921;28;19925;-61
2022/12/15 12:45:36;;;;;;;;;;;;;;;;;;10457499;28;19931;-61
2022/12/15 12:50:38;;;;;;;;;;;;;;;;;;10467147;28;20429;-62
2022/12/15 12:55:40;;;;;;;;;;;;;;;;;;10506037;28;19981;-62
2022/12/15 13:00:42;;;;;;;;;;;;;;;;;;10491420;28;20285;-62
2022/12/15 13:05:45;;;;;;;;;;;;;;;;;;10505073;28;19924;-61
2022/12/15 13:10:47;;;;;;;;;;;;;;;;;;10505619;28;19928;-62
2022/12/15 13:15:51;;;;;;;;;;;;;;;;;;10502729;28;19928;-61
2022/12/15 13:20:54;;;;;;;;;;;;;;;;;;10504532;28;20019;-61
2022/12/15 13:25:56;;;;;;;;;;;;;;;;;;10504348;28;19924;-61
2022/12/15 13:30:58;;;;;;;;;;;;;;;;;;10483507;28;19928;-62
2022/12/15 13:36:07;;;;;;;;;;;;;;;;;;10477161;28;20277;-62
2022/12/15 13:41:09;;;;;;;;;;;;;;;;;;10493602;28;19924;-61
2022/12/15 13:46:11;;;;;;;;;;;;;;;;;;10481415;28;20326;-62
2022/12/15 13:51:13;;;;;;;;;;;;;;;;;;10461376;28;19932;-61
2022/12/15 13:56:15;;;;;;;;;;;;;;;;;;10461247;28;19979;-61
2022/12/15 14:01:17;;;;;;;;;;;;;;;;;;10461633;28;20323;-62
2022/12/15 14:06:19;;;;;;;;;;;;;;;;;;10460850;28;20299;-62
2022/12/15 14:11:21;;;;;;;;;;;;;;;;;;10475724;28;19933;-61
2022/12/15 14:16:43;;;;;;;;;;;;;;;;;;10419658;28;20406;-61
2022/12/15 14:21:45;;;;;;;;;;;;;;;;;;10463235;28;19928;-61
2022/12/15 14:26:47;;;;;;;;;;;;;;;;;;10461257;28;19924;-61
2022/12/15 14:31:49;;;;;;;;;;;;;;;;;;10460375;28;19929;-61
2022/12/15 14:36:52;;;;;;;;;;;;;;;;;;10459855;28;20027;-61
2022/12/15 14:41:54;;;;;;;;;;;;;;;;;;10460187;28;19970;-61
2022/12/15 14:46:56;;;;;;;;;;;;;;;;;;10460362;28;19925;-61
2022/12/15 14:51:58;;;;;;;;;;;;;;;;;;10459565;28;19925;-61
2022/12/15 14:57:00;;;;;;;;;;;;;;;;;;10459295;28;20334;-61
2022/12/15 15:02:02;;;;;;;;;;;;;;;;;;10459659;28;19925;-61
2022/12/15 15:07:05;;;;;;;;;;;;;;;;;;10459503;28;19931;-61
2022/12/15 15:12:07;;;;;;;;;;;;;;;;;;10458397;28;19929;-61
2022/12/15 15:17:09;;;;;;;;;;;;;;;;;;10457954;28;19925;-61
2022/12/15 15:22:11;;;;;;;;;;;;;;;;;;10458926;28;20063;-61
2022/12/15 15:27:13;;;;;;;;;;;;;;;;;;10458091;28;19925;-61
2022/12/15 15:32:15;;;;;;;;;;;;;;;;;;10458718;28;19925;-61
2022/12/15 15:37:17;;;;;;;;;;;;;;;;;;10458274;28;20257;-61
2022/12/15 15:42:19;;;;;;;;;;;;;;;;;;10458268;28;19932;-61
2022/12/15 15:47:21;;;;;;;;;;;;;;;;;;10457495;28;20372;-61
2022/12/15 15:52:23;;;;;;;;;;;;;;;;;;10457301;28;19925;-61
2022/12/15 15:57:26;;;;;;;;;;;;;;;;;;10457848;28;19925;-61
2022/12/15 16:02:28;;;;;;;;;;;;;;;;;;10465083;22;19908;-62
2022/12/15 16:07:30;;;;;;;;;;;;;;;;;;10456969;28;19932;-61
2022/12/15 16:12:32;;;;;;;;;;;;;;;;;;10457088;28;19979;-61
2022/12/15 16:17:34;;;;;;;;;;;;;;;;;;10456686;28;19971;-61
2022/12/15 16:22:36;;;;;;;;;;;;;;;;;;10467945;28;19975;-61
2022/12/15 16:27:39;;;;;;;;;;;;;;;;;;10453307;28;19932;-61
2022/12/15 16:32:41;;;;;;;;;;;;;;;;;;10470892;28;19970;-61
2022/12/15 16:37:47;;;;;;;;;;;;;;;;;;10470041;28;19933;-61
2022/12/15 16:42:49;;;;;;;;;;;;;;;;;;10470637;28;19925;-61
2022/12/15 16:47:51;;;;;;;;;;;;;;;;;;10470532;28;19924;-61
2022/12/15 16:52:53;;;;;;;;;;;;;;;;;;10469924;28;20394;-60
2022/12/15 16:57:55;;;;;;;;;;;;;;;;;;10470375;28;19939;-61
2022/12/15 17:02:57;;;;;;;;;;;;;;;;;;10469718;28;19995;-61
2022/12/15 17:08:00;;;;;;;;;;;;;;;;;;10469499;28;19924;-61
2022/12/15 17:13:02;;;;;;;;;;;;;;;;;;10469578;28;19928;-61
2022/12/15 17:18:04;;;;;;;;;;;;;;;;;;10469389;28;20371;-61
2022/12/15 17:23:06;;;;;;;;;;;;;;;;;;10469873;28;19928;-61
2022/12/15 17:28:08;;;;;;;;;;;;;;;;;;10469804;28;19929;-61
2022/12/15 17:33:10;;;;;;;;;;;;;;;;;;10465739;28;19978;-61
2022/12/15 17:38:13;;;;;;;;;;;;;;;;;;10463109;28;20137;-61
2022/12/15 17:43:15;;;;;;;;;;;;;;;;;;10462225;28;19925;-61
2022/12/15 17:48:17;;;;;;;;;;;;;;;;;;10462099;28;19924;-61
2022/12/15 17:53:19;;;;;;;;;;;;;;;;;;10461894;28;20338;-61
2022/12/15 17:58:21;;;;;;;;;;;;;;;;;;10461694;28;20405;-61
2022/12/15 18:03:23;;;;;;;;;;;;;;;;;;10461575;28;20513;-61
2022/12/15 18:08:25;;;;;;;;;;;;;;;;;;10461269;28;19995;-61
2022/12/15 18:13:28;;;;;;;;;;;;;;;;;;10461756;28;19929;-61
2022/12/15 18:18:35;;;;;;;;;;;;;;;;;;10460901;28;20012;-61
2022/12/15 18:23:37;;;;;;;;;;;;;;;;;;10461447;28;19932;-61
2022/12/15 18:28:40;;;;;;;;;;;;;;;;;;10460526;28;20265;-60
2022/12/15 18:33:43;;;;;;;;;;;;;;;;;;10460291;28;19925;-60
2022/12/15 18:38:45;;;;;;;;;;;;;;;;;;10460710;28;19925;-61
2022/12/15 18:43:47;;;;;;;;;;;;;;;;;;10459425;28;19924;-60
2022/12/15 18:48:49;;;;;;;;;;;;;;;;;;10459719;28;19986;-61
2022/12/15 18:53:51;;;;;;;;;;;;;;;;;;10459639;28;19932;-61
2022/12/15 18:58:53;;;;;;;;;;;;;;;;;;10459821;28;19929;-61
2022/12/15 19:03:56;;;;;;;;;;;;;;;;;;10459568;28;19932;-61
2022/12/15 19:08:58;;;;;;;;;;;;;;;;;;10459633;28;19929;-61
2022/12/15 19:14:00;;;;;;;;;;;;;;;;;;10459435;28;19924;-61
2022/12/15 19:24:52;;;;;;;;;;;;;;;;;;10458397;28;19973;-61
2022/12/15 19:29:44;;;;;;;;;;;;;;;;;;10458196;28;19970;-61
2022/12/15 19:34:46;;;;;;;;;;;;;;;;;;10457176;28;19925;-61
2022/12/15 19:39:48;;;;;;;;;;;;;;;;;;10457754;28;19971;-61
2022/12/15 19:44:50;;;;;;;;;;;;;;;;;;10458739;28;19947;-60
2022/12/15 19:49:53;;;;;;;;;;;;;;;;;;10457707;28;19925;-61
2022/12/15 19:54:56;;;;;;;;;;;;;;;;;;10466928;28;19971;-60
2022/12/15 19:59:58;;;;;;;;;;;;;;;;;;10457515;28;19925;-60
2022/12/15 20:05:01;;;;;;;;;;;;;;;;;;10457383;28;19951;-60
2022/12/15 20:10:04;;;;;;;;;;;;;;;;;;10456922;28;19928;-61
2022/12/15 20:15:06;;;;;;;;;;;;;;;;;;10457511;28;19924;-61
2022/12/15 20:20:14;;;;;;;;;;;;;;;;;;10459605;28;19929;-60
2022/12/15 20:25:16;;;;;;;;;;;;;;;;;;10457178;28;19925;-61
2022/12/15 20:30:18;;;;;;;;;;;;;;;;;;10456546;28;20441;-61
2022/12/15 20:35:21;;;;;;;;;;;;;;;;;;10455838;28;19925;-61
2022/12/15 20:40:23;;;;;;;;;;;;;;;;;;10455424;28;19995;-61
2022/12/15 20:45:25;;;;;;;;;;;;;;;;;;10458494;28;20368;-61
2022/12/15 20:50:27;;;;;;;;;;;;;;;;;;10456694;28;19932;-61
2022/12/15 20:55:30;;;;;;;;;;;;;;;;;;10440031;28;19929;-61
2022/12/15 21:00:32;;;;;;;;;;;;;;;;;;10455873;28;20288;-61
2022/12/15 21:05:34;;;;;;;;;;;;;;;;;;10456689;28;19932;-61
2022/12/15 21:10:36;;;;;;;;;;;;;;;;;;10445481;28;19994;-61
2022/12/15 21:15:38;;;;;;;;;;;;;;;;;;10463362;28;20380;-61
2022/12/15 21:20:41;;;;;;;;;;;;;;;;;;10463422;28;19925;-60
2022/12/15 21:25:43;;;;;;;;;;;;;;;;;;10463010;28;20086;-61
2022/12/15 21:30:45;;;;;;;;;;;;;;;;;;10464666;28;19971;-61
2022/12/15 21:35:47;;;;;;;;;;;;;;;;;;10462578;28;20027;-60
2022/12/15 21:40:49;;;;;;;;;;;;;;;;;;10463094;28;19925;-60
2022/12/15 21:45:56;;;;;;;;;;;;;;;;;;10460892;28;19924;-60
2022/12/15 21:50:59;;;;;;;;;;;;;;;;;;10461364;28;20380;-61
2022/12/15 21:56:01;;;;;;;;;;;;;;;;;;10461880;28;20330;-61
2022/12/15 22:01:03;;;;;;;;;;;;;;;;;;10461557;28;19928;-61
2022/12/15 22:06:05;;;;;;;;;;;;;;;;;;10461519;28;19967;-60
2022/12/15 22:11:07;;;;;;;;;;;;;;;;;;10461195;28;19931;-61
2022/12/15 22:16:09;;;;;;;;;;;;;;;;;;10461142;28;20425;-61
2022/12/15 22:21:12;;;;;;;;;;;;;;;;;;10459884;28;20290;-60
2022/12/15 22:26:14;;;;;;;;;;;;;;;;;;10460715;28;20372;-61
2022/12/15 22:31:16;;;;;;;;;;;;;;;;;;10461064;28;19970;-61
2022/12/15 22:36:18;;;;;;;;;;;;;;;;;;10460401;28;19931;-61
2022/12/15 22:41:20;;;;;;;;;;;;;;;;;;10459373;28;19925;-60
2022/12/15 22:46:22;;;;;;;;;;;;;;;;;;10460476;28;19924;-61
2022/12/15 22:51:26;;;;;;;;;;;;;;;;;;10459613;28;20417;-60
2022/12/15 22:56:29;;;;;;;;;;;;;;;;;;10459677;28;19925;-61
2022/12/15 23:01:31;;;;;;;;;;;;;;;;;;10459168;28;19933;-61
2022/12/15 23:06:33;;;;;;;;;;;;;;;;;;10458650;28;19929;-61
2022/12/15 23:11:35;;;;;;;;;;;;;;;;;;10458627;28;19925;-61
2022/12/15 23:16:37;;;;;;;;;;;;;;;;;;10459289;28;19932;-61
2022/12/15 23:21:40;;;;;;;;;;;;;;;;;;10458384;28;20391;-60
2022/12/15 23:26:42;;;;;;;;;;;;;;;;;;10458436;28;19925;-60
2022/12/15 23:31:44;;;;;;;;;;;;;;;;;;10457983;28;19987;-61
2022/12/15 23:36:47;;;;;;;;;;;;;;;;;;10458075;28;20345;-61
2022/12/15 23:41:49;;;;;;;;;;;;;;;;;;10458321;28;19929;-61
2022/12/15 23:46:51;;;;;;;;;;;;;;;;;;10458192;28;19925;-61
2022/12/15 23:51:53;;;;;;;;;;;;;;;;;;10457591;28;19929;-60
2022/12/15 23:56:56;;;;;;;;;;;;;;;;;;10457956;28;19964;-60
